Time;durP1;ratioP1;P1;durP2;ratioP2;P2;SDS_P1;SDS_P2;PMS_P1;PMS_P2;Temp;Humidity;BMP_temperature;BMP_pressure;BME280_temperature;BME280_humidity;BME280_pressure;Samples;Min_cycle;Max_cycle;Signal;HPM_P1;HPM_P2
2022/11/10 00:01:10;;;;;;;5.33;3.80;;;12.40;99.90;;;;;;5027215;28;20683;-79
2022/11/10 00:03:56;;;;;;;5.20;4.40;;;12.40;99.90;;;;;;5041390;28;20394;-79
2022/11/10 00:06:41;;;;;;;3.23;3.03;;;12.40;99.90;;;;;;5042320;28;20434;-78
2022/11/10 00:09:25;;;;;;;3.50;3.30;;;12.40;99.90;;;;;;5042095;28;20386;-79
2022/11/10 00:12:09;;;;;;;3.80;3.30;;;12.40;99.90;;;;;;5041519;28;20461;-79
2022/11/10 00:17:48;;;;;;;14.20;4.50;;;12.30;99.90;;;;;;5042033;28;20503;-79
2022/11/10 00:20:31;;;;;;;5.50;3.30;;;12.20;99.90;;;;;;5041560;28;20431;-79
2022/11/10 00:23:16;;;;;;;5.13;3.40;;;12.20;99.90;;;;;;5042084;28;20456;-79
2022/11/10 00:26:00;;;;;;;12.47;3.57;;;12.20;99.90;;;;;;5041889;28;20398;-79
2022/11/10 00:28:44;;;;;;;3.93;3.40;;;12.10;99.90;;;;;;5041236;28;20470;-79
2022/11/10 00:31:29;;;;;;;10.80;3.80;;;12.10;99.90;;;;;;5041697;28;20914;-79
2022/11/10 00:34:15;;;;;;;3.57;3.20;;;12.10;99.90;;;;;;5040980;28;20430;-79
2022/11/10 00:36:59;;;;;;;3.90;3.40;;;12.00;99.90;;;;;;5026640;28;20395;-78
2022/11/10 00:39:43;;;;;;;2.70;2.50;;;12.00;99.90;;;;;;5041255;28;20386;-78
2022/11/10 00:42:27;;;;;;;4.00;2.63;;;12.00;99.90;;;;;;5042190;28;20453;-79
2022/11/10 00:45:11;;;;;;;7.10;2.90;;;12.00;99.90;;;;;;5041279;28;20398;-79
2022/11/10 00:47:55;;;;;;;5.30;3.40;;;11.90;99.90;;;;;;5042090;28;20457;-79
2022/11/10 00:50:40;;;;;;;2.83;2.53;;;11.90;99.90;;;;;;5026197;28;20872;-78
2022/11/10 00:53:24;;;;;;;3.10;2.83;;;11.80;99.90;;;;;;5044451;28;20365;-79
2022/11/10 00:56:09;;;;;;;3.80;2.67;;;11.80;99.90;;;;;;5030426;28;20390;-79
2022/11/10 00:58:53;;;;;;;3.17;2.87;;;11.70;99.90;;;;;;5041533;28;20391;-79
2022/11/10 01:01:37;;;;;;;4.43;2.90;;;11.70;99.90;;;;;;5041785;28;20811;-79
2022/11/10 01:04:21;;;;;;;3.70;3.17;;;11.60;99.90;;;;;;5042962;28;20395;-77
2022/11/10 01:07:06;;;;;;;4.53;4.13;;;11.60;99.90;;;;;;5042236;28;20450;-79
2022/11/10 01:09:50;;;;;;;4.60;3.57;;;11.50;99.90;;;;;;5040983;28;20430;-79
2022/11/10 01:12:34;;;;;;;3.67;2.50;;;11.60;99.90;;;;;;5052990;28;20421;-78
2022/11/10 01:15:19;;;;;;;8.30;3.80;;;11.50;99.90;;;;;;5055939;28;20922;-80
2022/11/10 01:18:03;;;;;;;4.60;3.63;;;11.50;99.90;;;;;;5042119;28;20433;-79
2022/11/10 01:20:51;;;;;;;4.03;3.20;;;11.50;99.90;;;;;;5042009;28;20395;-79
2022/11/10 01:23:35;;;;;;;3.93;3.20;;;11.40;99.90;;;;;;5042984;28;20467;-79
2022/11/10 01:26:20;;;;;;;10.70;3.37;;;11.40;99.90;;;;;;5043540;28;20385;-79
2022/11/10 01:29:04;;;;;;;6.63;3.30;;;11.40;99.90;;;;;;5042946;28;20503;-79
2022/11/10 01:31:49;;;;;;;4.13;3.73;;;11.40;99.90;;;;;;5027935;28;20391;-79
2022/11/10 01:34:33;;;;;;;9.00;3.63;;;11.30;99.90;;;;;;5043238;28;20398;-79
2022/11/10 01:37:17;;;;;;;5.27;4.77;;;11.30;99.90;;;;;;5042326;28;20357;-80
2022/11/10 01:40:01;;;;;;;3.80;3.50;;;11.30;99.90;;;;;;5042217;28;20386;-78
2022/11/10 01:42:52;;;;;;;3.33;2.97;;;11.30;99.90;;;;;;5028237;28;20832;-78
2022/11/10 01:45:53;;;;;;;5.87;3.03;;;11.20;99.90;;;;;;5043493;28;20374;-77
2022/11/10 01:48:53;;;;;;;6.20;3.20;;;11.20;99.90;;;;;;5056905;28;20449;-78
2022/11/10 01:51:55;;;;;;;4.27;3.87;;;11.10;99.90;;;;;;5056815;28;20511;-76
2022/11/10 01:54:45;;;;;;;6.83;2.97;;;11.10;99.90;;;;;;5056784;28;20455;-76
2022/11/10 01:57:30;;;;;;;7.73;3.57;;;11.10;99.90;;;;;;5056860;28;20446;-76
2022/11/10 02:00:15;;;;;;;3.10;2.90;;;11.00;99.90;;;;;;5056399;28;20451;-77
2022/11/10 02:03:08;;;;;;;5.87;3.77;;;10.80;99.90;;;;;;5057153;28;20399;-76
2022/11/10 02:05:52;;;;;;;11.07;3.37;;;10.80;99.90;;;;;;5056875;28;20386;-76
2022/11/10 02:08:36;;;;;;;3.50;3.20;;;10.80;99.90;;;;;;5056564;28;20485;-76
2022/11/10 02:11:22;;;;;;;5.60;3.90;;;10.70;99.90;;;;;;5057315;28;20946;-76
2022/11/10 02:14:06;;;;;;;5.60;3.50;;;10.60;99.90;;;;;;5057040;28;20393;-77
2022/11/10 02:16:50;;;;;;;5.77;3.20;;;10.60;99.90;;;;;;5056333;28;20799;-77
2022/11/10 02:19:41;;;;;;;3.57;3.27;;;10.60;99.90;;;;;;5055917;28;20406;-76
2022/11/10 02:22:25;;;;;;;3.00;2.80;;;10.70;99.90;;;;;;5053169;28;20387;-78
2022/11/10 02:25:15;;;;;;;4.07;3.30;;;10.60;99.90;;;;;;5040908;28;20362;-78
2022/11/10 02:27:59;;;;;;;5.33;3.30;;;10.60;99.90;;;;;;5046421;28;20644;-80
2022/11/10 02:30:43;;;;;;;3.40;3.07;;;10.60;99.90;;;;;;5044324;28;20383;-80
2022/11/10 02:33:29;;;;;;;2.97;2.77;;;10.50;99.90;;;;;;5045347;28;20525;-80
2022/11/10 02:36:13;;;;;;;5.90;3.20;;;10.60;99.90;;;;;;5054856;28;20361;-78
2022/11/10 02:38:57;;;;;;;3.67;3.07;;;10.60;99.90;;;;;;5045145;28;20373;-79
2022/11/10 02:41:41;;;;;;;10.73;3.43;;;10.70;99.90;;;;;;5042504;28;20406;-79
2022/11/10 02:44:25;;;;;;;3.40;3.13;;;10.70;99.90;;;;;;5044011;28;20415;-80
2022/11/10 02:47:09;;;;;;;4.10;3.70;;;10.70;99.90;;;;;;5043809;28;20446;-80
2022/11/10 02:49:53;;;;;;;11.50;3.10;;;10.70;99.90;;;;;;5044851;28;20426;-80
2022/11/10 02:52:37;;;;;;;6.50;3.20;;;10.70;99.90;;;;;;5042026;28;20460;-80
2022/11/10 02:55:21;;;;;;;8.70;3.57;;;10.60;99.90;;;;;;5047324;28;20403;-79
2022/11/10 02:58:06;;;;;;;5.23;3.37;;;10.60;99.90;;;;;;5047953;28;20414;-79
2022/11/10 03:00:50;;;;;;;6.60;3.93;;;10.50;99.90;;;;;;5050231;28;20387;-79
2022/11/10 03:03:34;;;;;;;5.33;3.53;;;10.40;99.90;;;;;;5047098;28;20449;-79
2022/11/10 03:06:18;;;;;;;4.20;3.07;;;10.30;99.90;;;;;;5049093;28;20418;-79
2022/11/10 03:09:02;;;;;;;3.37;3.07;;;10.20;99.90;;;;;;5048351;28;20403;-80
2022/11/10 03:11:47;;;;;;;3.50;2.90;;;10.20;99.90;;;;;;5049598;28;20425;-79
2022/11/10 03:14:31;;;;;;;6.77;3.23;;;10.10;99.90;;;;;;5048830;28;20383;-79
2022/11/10 03:17:15;;;;;;;10.83;3.50;;;10.10;99.90;;;;;;5048040;28;20387;-80
2022/11/10 03:19:59;;;;;;;6.60;3.83;;;10.10;99.90;;;;;;5044012;28;20374;-80
2022/11/10 03:22:44;;;;;;;3.80;3.50;;;10.20;99.90;;;;;;5049665;28;20434;-79
2022/11/10 03:25:28;;;;;;;4.40;3.03;;;10.20;99.90;;;;;;5050711;28;20435;-79
2022/11/10 03:28:13;;;;;;;6.73;3.63;;;10.30;99.90;;;;;;5051637;28;20453;-77
2022/11/10 03:30:57;;;;;;;5.93;2.90;;;10.30;99.90;;;;;;5051797;28;20829;-77
2022/11/10 03:33:41;;;;;;;5.50;3.30;;;10.40;99.90;;;;;;5047795;28;20422;-78
2022/11/10 03:36:25;;;;;;;6.63;4.33;;;10.40;99.90;;;;;;5052574;28;20387;-77
2022/11/10 03:39:09;;;;;;;5.90;3.63;;;10.40;99.90;;;;;;5053388;28;20394;-77
2022/11/10 03:41:54;;;;;;;4.20;3.80;;;10.10;99.90;;;;;;5037644;28;20378;-79
2022/11/10 03:44:38;;;;;;;2.73;2.53;;;10.00;99.90;;;;;;5038173;28;20439;-79
2022/11/10 03:47:22;;;;;;;3.30;3.03;;;9.80;99.90;;;;;;5037830;28;20481;-78
2022/11/10 03:50:07;;;;;;;9.60;3.40;;;9.70;99.90;;;;;;5037655;28;20391;-79
2022/11/10 03:52:51;;;;;;;11.47;4.67;;;9.60;99.90;;;;;;5036788;28;20470;-79
2022/11/10 03:55:35;;;;;;;4.20;3.50;;;9.50;99.90;;;;;;5037290;28;20362;-79
2022/11/10 03:58:19;;;;;;;5.07;3.00;;;9.40;99.90;;;;;;5037970;28;20501;-79
2022/11/10 04:01:03;;;;;;;6.60;3.93;;;9.40;99.90;;;;;;5037168;28;20391;-78
2022/11/10 04:03:47;;;;;;;3.40;3.10;;;9.30;99.90;;;;;;5037164;28;20390;-78
2022/11/10 04:09:33;;;;;;;5.90;3.50;;;9.20;99.90;;;;;;5037002;28;20899;-79
2022/11/10 04:18:20;;;;;;;4.50;3.67;;;8.90;99.90;;;;;;5036243;28;20446;-79
2022/11/10 04:21:05;;;;;;;4.80;3.40;;;8.80;99.90;;;;;;5036958;28;20378;-78
2022/11/10 04:23:49;;;;;;;4.63;3.27;;;8.80;99.90;;;;;;5036674;28;20868;-78
2022/11/10 04:26:36;;;;;;;4.77;3.50;;;8.80;99.90;;;;;;5037404;28;20498;-78
2022/11/10 04:29:20;;;;;;;4.70;3.53;;;8.70;99.90;;;;;;5037380;28;20486;-78
2022/11/10 04:32:04;;;;;;;8.80;3.80;;;8.60;99.90;;;;;;5036650;28;20983;-79
2022/11/10 04:34:49;;;;;;;3.57;3.27;;;8.60;99.90;;;;;;5037839;28;20418;-78
2022/11/10 04:37:33;;;;;;;4.70;3.40;;;8.50;99.90;;;;;;5037040;28;20407;-78
2022/11/10 04:40:17;;;;;;;4.27;3.40;;;8.50;99.90;;;;;;5037068;28;20390;-79
2022/11/10 04:43:01;;;;;;;4.97;3.97;;;8.30;99.90;;;;;;5036468;28;20873;-79
2022/11/10 04:45:45;;;;;;;5.03;3.83;;;8.40;99.90;;;;;;5038313;28;20394;-79
2022/11/10 04:48:30;;;;;;;5.10;3.03;;;8.30;99.90;;;;;;5014827;28;20445;-79
2022/11/10 04:51:16;;;;;;;7.23;4.30;;;8.30;99.90;;;;;;5042549;28;20505;-78
2022/11/10 04:54:05;;;;;;;4.90;3.13;;;8.40;99.90;;;;;;5053374;28;20445;-80
2022/11/10 04:56:49;;;;;;;3.77;3.47;;;8.40;99.90;;;;;;5040967;28;20392;-80
2022/11/10 04:59:33;;;;;;;3.63;3.33;;;8.50;99.90;;;;;;5039427;28;20410;-80
2022/11/10 05:02:17;;;;;;;8.20;3.93;;;8.40;99.90;;;;;;5042432;28;20482;-80
2022/11/10 05:05:02;;;;;;;8.90;3.50;;;8.20;99.90;;;;;;5042924;28;20387;-79
2022/11/10 05:07:47;;;;;;;8.57;3.43;;;8.10;99.90;;;;;;5041445;28;20500;-79
2022/11/10 05:10:33;;;;;;;4.30;3.90;;;8.00;99.90;;;;;;5042060;28;20391;-80
2022/11/10 05:13:17;;;;;;;3.60;3.30;;;8.00;99.90;;;;;;5042268;28;20423;-80
2022/11/10 05:16:01;;;;;;;4.17;3.00;;;7.90;99.90;;;;;;5028212;28;20379;-80
2022/11/10 05:18:45;;;;;;;4.93;3.73;;;7.90;99.90;;;;;;5043496;28;20441;-80
2022/11/10 05:21:29;;;;;;;5.50;5.00;;;8.00;99.90;;;;;;5028038;28;20865;-79
2022/11/10 05:24:14;;;;;;;7.30;5.07;;;8.10;99.90;;;;;;5028572;28;20412;-79
2022/11/10 05:26:58;;;;;;;5.63;4.13;;;8.00;99.90;;;;;;5042515;28;20436;-79
2022/11/10 05:29:43;;;;;;;6.40;4.07;;;7.80;99.90;;;;;;5043809;28;20362;-79
2022/11/10 05:32:27;;;;;;;8.50;4.37;;;7.80;99.90;;;;;;5043523;28;20352;-79
2022/11/10 05:35:11;;;;;;;5.40;4.77;;;7.80;99.90;;;;;;5042916;28;20748;-79
2022/11/10 05:37:55;;;;;;;4.80;4.40;;;7.70;99.90;;;;;;5042698;28;20903;-79
2022/11/10 05:40:39;;;;;;;4.90;4.27;;;7.70;99.90;;;;;;5042819;28;20423;-79
2022/11/10 05:43:23;;;;;;;8.47;5.53;;;7.60;99.90;;;;;;5042674;28;20357;-79
2022/11/10 05:46:08;;;;;;;4.37;3.97;;;7.70;99.90;;;;;;5042683;28;20441;-79
2022/11/10 05:48:52;;;;;;;6.50;4.60;;;7.70;99.90;;;;;;5042759;28;20464;-79
2022/11/10 05:51:36;;;;;;;5.17;4.07;;;7.80;99.90;;;;;;5042617;28;20437;-79
2022/11/10 05:54:20;;;;;;;8.93;3.80;;;7.70;99.90;;;;;;5044098;28;20353;-79
2022/11/10 05:57:04;;;;;;;10.03;4.37;;;7.60;99.90;;;;;;5041553;28;20417;-79
2022/11/10 05:59:49;;;;;;;6.37;4.43;;;7.50;99.90;;;;;;5027380;28;20389;-79
2022/11/10 06:02:33;;;;;;;4.40;3.50;;;7.40;99.90;;;;;;5027646;28;20476;-79
2022/11/10 06:05:17;;;;;;;14.80;4.33;;;7.50;99.90;;;;;;5041274;28;20947;-79
2022/11/10 06:08:03;;;;;;;5.93;4.00;;;7.40;99.90;;;;;;5041270;28;20428;-79
2022/11/10 06:10:47;;;;;;;6.70;4.00;;;7.40;99.90;;;;;;5042088;28;20365;-79
2022/11/10 06:13:31;;;;;;;4.70;3.80;;;7.40;99.90;;;;;;5040809;28;20366;-78
2022/11/10 06:16:15;;;;;;;7.17;4.30;;;7.40;99.90;;;;;;5025048;28;20415;-78
2022/11/10 06:19:00;;;;;;;8.13;4.53;;;7.40;99.90;;;;;;5022243;28;20427;-79
2022/11/10 06:21:44;;;;;;;7.83;4.80;;;7.40;99.90;;;;;;5024467;28;20438;-80
2022/11/10 06:24:29;;;;;;;6.80;3.77;;;7.40;99.90;;;;;;5041692;28;20402;-80
2022/11/10 06:27:13;;;;;;;5.47;4.97;;;7.30;99.90;;;;;;5041342;28;20454;-79
2022/11/10 06:29:57;;;;;;;6.83;5.17;;;7.40;99.90;;;;;;5042394;28;20844;-79
2022/11/10 06:32:43;;;;;;;11.07;4.90;;;7.40;99.90;;;;;;5040471;28;20429;-80
2022/11/10 06:35:27;;;;;;;6.53;5.93;;;7.40;99.90;;;;;;5027864;28;20390;-79
2022/11/10 06:38:11;;;;;;;6.13;5.03;;;7.40;99.90;;;;;;5026902;28;20417;-79
2022/11/10 06:40:55;;;;;;;4.73;4.30;;;7.40;99.90;;;;;;5041606;28;20434;-79
2022/11/10 06:43:40;;;;;;;14.63;5.40;;;7.30;99.90;;;;;;5039837;28;20798;-79
2022/11/10 06:46:24;;;;;;;6.80;4.27;;;7.30;99.90;;;;;;5032385;28;20405;-79
2022/11/10 06:49:09;;;;;;;7.17;6.47;;;7.40;99.90;;;;;;5010817;28;20417;-79
2022/11/10 06:51:53;;;;;;;8.73;6.13;;;7.40;99.90;;;;;;5029406;28;20445;-79
2022/11/10 06:54:37;;;;;;;5.90;5.20;;;7.50;99.90;;;;;;5041246;28;20426;-80
2022/11/10 06:57:21;;;;;;;7.10;6.43;;;7.50;99.90;;;;;;5039187;28;20432;-78
2022/11/10 07:00:06;;;;;;;4.97;4.47;;;7.50;99.90;;;;;;5020296;28;20495;-80
2022/11/10 07:03:12;;;;;;;6.47;5.80;;;7.50;99.90;;;;;;5036782;28;20409;-79
2022/11/10 07:05:57;;;;;;;19.53;6.50;;;7.50;99.90;;;;;;5038956;28;20381;-81
2022/11/10 07:08:41;;;;;;;9.70;5.50;;;7.40;99.90;;;;;;5035217;28;20481;-80
2022/11/10 07:11:25;;;;;;;7.60;5.87;;;7.40;99.90;;;;;;5039225;28;20428;-80
2022/11/10 07:14:10;;;;;;;6.30;5.70;;;7.30;99.90;;;;;;5024177;28;20496;-79
2022/11/10 07:16:54;;;;;;;13.37;5.20;;;7.30;99.90;;;;;;5036266;28;20424;-79
2022/11/10 07:19:38;;;;;;;6.67;4.90;;;7.20;99.90;;;;;;5034957;28;20450;-80
2022/11/10 07:22:22;;;;;;;6.83;4.60;;;7.10;99.90;;;;;;5030143;28;20477;-79
2022/11/10 07:25:07;;;;;;;8.70;6.67;;;7.20;99.90;;;;;;5038696;28;20476;-80
2022/11/10 07:27:53;;;;;;;8.80;6.23;;;7.30;99.90;;;;;;5036654;28;20477;-79
2022/11/10 07:30:41;;;;;;;6.37;5.73;;;7.30;99.90;;;;;;5034790;28;20469;-79
2022/11/10 07:33:25;;;;;;;23.27;6.17;;;7.50;99.90;;;;;;5037287;28;20486;-79
2022/11/10 07:36:09;;;;;;;26.87;6.47;;;7.40;99.90;;;;;;5012001;28;20437;-80
2022/11/10 07:38:54;;;;;;;39.20;7.00;;;7.30;99.90;;;;;;5042853;28;20952;-78
2022/11/10 07:41:38;;;;;;;16.27;7.40;;;7.30;99.90;;;;;;5033993;28;20739;-79
2022/11/10 07:44:23;;;;;;;50.17;8.63;;;7.60;99.90;;;;;;5020023;28;20409;-79
2022/11/10 07:47:07;;;;;;;14.67;8.33;;;7.60;99.90;;;;;;5033761;28;20457;-79
2022/11/10 07:49:51;;;;;;;9.57;5.07;;;7.70;99.90;;;;;;5035972;28;20970;-79
2022/11/10 07:52:35;;;;;;;9.53;6.60;;;7.90;99.90;;;;;;5038619;28;20843;-78
2022/11/10 07:55:20;;;;;;;13.83;6.60;;;8.10;99.90;;;;;;5025421;28;20418;-79
2022/11/10 07:58:05;;;;;;;11.70;6.70;;;8.20;99.90;;;;;;5032195;28;20887;-80
2022/11/10 08:00:49;;;;;;;8.47;6.60;;;8.20;99.90;;;;;;5034968;28;20446;-80
2022/11/10 08:03:33;;;;;;;7.67;6.47;;;8.40;99.90;;;;;;5014352;28;20431;-79
2022/11/10 08:06:18;;;;;;;7.10;6.40;;;8.60;99.90;;;;;;5040542;28;20510;-80
2022/11/10 08:09:02;;;;;;;8.30;6.93;;;9.00;99.90;;;;;;5019034;28;20454;-80
2022/11/10 08:11:46;;;;;;;10.40;6.43;;;9.60;99.90;;;;;;5029750;28;20440;-80
2022/11/10 08:14:30;;;;;;;11.13;6.07;;;9.50;99.90;;;;;;5034238;28;20835;-79
2022/11/10 08:17:15;;;;;;;12.47;7.30;;;9.40;99.90;;;;;;5031444;28;20420;-78
2022/11/10 08:19:59;;;;;;;9.07;6.50;;;9.30;99.90;;;;;;5031413;28;20482;-77
2022/11/10 08:22:43;;;;;;;8.73;8.13;;;9.20;99.90;;;;;;5036572;28;20516;-79
2022/11/10 08:25:30;;;;;;;9.00;7.20;;;9.20;99.90;;;;;;5030002;28;20463;-78
2022/11/10 08:28:16;;;;;;;10.13;6.90;;;9.00;99.90;;;;;;5027217;28;20467;-78
2022/11/10 08:31:02;;;;;;;7.30;6.60;;;9.10;99.90;;;;;;5028670;28;20450;-79
2022/11/10 08:33:46;;;;;;;9.67;6.87;;;9.20;99.90;;;;;;5019245;28;20451;-81
2022/11/10 08:36:30;;;;;;;8.60;6.60;;;9.20;99.90;;;;;;5032146;28;20401;-79
2022/11/10 08:39:14;;;;;;;10.17;6.80;;;9.20;99.90;;;;;;5033758;28;21041;-81
2022/11/10 08:41:59;;;;;;;8.70;6.73;;;9.20;99.90;;;;;;5034483;28;20804;-79
2022/11/10 08:44:43;;;;;;;9.20;7.40;;;9.20;99.90;;;;;;5037142;28;20453;-78
2022/11/10 08:47:27;;;;;;;10.80;6.87;;;9.10;99.90;;;;;;5032619;28;20477;-79
2022/11/10 08:50:11;;;;;;;9.47;8.07;;;9.20;99.90;;;;;;5029998;28;20492;-80
2022/11/10 08:52:59;;;;;;;11.93;8.17;;;9.30;99.90;;;;;;5029502;28;20498;-78
2022/11/10 08:55:43;;;;;;;9.33;6.87;;;9.30;99.90;;;;;;5028770;28;21638;-79
2022/11/10 08:58:28;;;;;;;9.20;6.80;;;9.40;99.90;;;;;;5035578;28;20510;-78
2022/11/10 09:01:12;;;;;;;9.43;7.70;;;9.50;99.90;;;;;;5031982;28;20410;-80
2022/11/10 09:03:56;;;;;;;11.17;7.33;;;10.00;99.90;;;;;;5032134;28;20397;-79
2022/11/10 09:06:40;;;;;;;11.50;7.83;;;10.40;99.90;;;;;;5031514;28;20941;-80
2022/11/10 09:09:26;;;;;;;12.10;8.43;;;10.60;99.90;;;;;;5033301;28;20898;-79
2022/11/10 09:12:10;;;;;;;10.50;7.63;;;10.60;99.90;;;;;;5033171;28;20454;-79
2022/11/10 09:14:54;;;;;;;10.93;7.07;;;10.70;99.90;;;;;;5035635;28;20425;-80
2022/11/10 09:17:40;;;;;;;7.43;6.60;;;10.70;99.90;;;;;;5038711;28;20444;-80
2022/11/10 09:20:25;;;;;;;15.30;6.90;;;10.80;99.90;;;;;;5041157;28;20465;-79
2022/11/10 09:23:15;;;;;;;8.30;6.60;;;10.90;99.90;;;;;;5048095;28;20512;-80
2022/11/10 09:25:59;;;;;;;9.10;7.80;;;10.80;99.90;;;;;;5031736;28;20426;-79
2022/11/10 09:28:44;;;;;;;9.60;6.20;;;10.90;99.90;;;;;;5033712;28;20488;-80
2022/11/10 09:31:29;;;;;;;6.23;5.30;;;10.90;99.90;;;;;;5036643;28;20430;-79
2022/11/10 09:34:14;;;;;;;8.07;5.20;;;11.20;99.90;;;;;;5030197;28;20510;-79
2022/11/10 09:36:58;;;;;;;9.93;6.37;;;11.50;99.90;;;;;;5037400;28;20450;-79
2022/11/10 09:39:43;;;;;;;20.03;6.07;;;11.60;99.90;;;;;;5035986;28;21274;-80
2022/11/10 09:42:36;;;;;;;16.40;6.97;;;11.70;99.90;;;;;;5035342;28;20439;-80
2022/11/10 09:45:27;;;;;;;5.57;4.60;;;11.50;99.90;;;;;;5043897;28;20418;-80
2022/11/10 09:48:28;;;;;;;10.80;6.43;;;11.50;99.90;;;;;;5044842;28;20458;-80
2022/11/10 09:51:24;;;;;;;5.00;4.50;;;11.60;99.90;;;;;;5040464;28;20457;-79
2022/11/10 09:54:35;;;;;;;8.77;5.17;;;11.80;99.90;;;;;;5033080;28;20437;-80
2022/11/10 09:57:23;;;;;;;8.43;4.80;;;12.00;99.90;;;;;;5031627;28;20490;-79
2022/11/10 10:00:13;;;;;;;11.10;5.90;;;11.80;99.90;;;;;;5036485;28;20482;-81
2022/11/10 10:03:01;;;;;;;12.30;4.90;;;12.00;99.90;;;;;;5029549;28;20437;-78
2022/11/10 10:06:09;;;;;;;12.30;5.83;;;12.20;99.90;;;;;;5038913;28;20490;-79
2022/11/10 10:09:11;;;;;;;8.80;5.40;;;12.40;99.90;;;;;;5030209;28;20462;-80
2022/11/10 10:12:14;;;;;;;5.17;4.70;;;12.20;99.90;;;;;;5035498;28;20850;-79
2022/11/10 10:15:20;;;;;;;7.70;5.73;;;12.60;99.90;;;;;;5033786;28;21012;-79
2022/11/10 10:18:35;;;;;;;13.63;5.47;;;12.80;99.90;;;;;;5021203;28;20434;-79
2022/11/10 10:21:45;;;;;;;5.83;4.60;;;12.90;99.90;;;;;;4974910;28;20995;-79
2022/11/10 10:24:31;;;;;;;11.17;4.33;;;13.30;99.90;;;;;;4972543;28;20477;-78
2022/11/10 10:27:22;;;;;;;5.70;4.07;;;13.90;99.90;;;;;;4972749;28;20489;-80
2022/11/10 10:30:17;;;;;;;6.20;5.00;;;13.40;99.90;;;;;;4959293;28;20559;-79
2022/11/10 10:33:14;;;;;;;6.10;3.40;;;13.00;99.90;;;;;;4971588;28;20477;-78
2022/11/10 10:36:06;;;;;;;6.20;3.83;;;13.10;99.90;;;;;;4981357;28;20513;-79
2022/11/10 10:38:56;;;;;;;6.60;3.30;;;12.80;99.90;;;;;;4973575;28;20529;-80
2022/11/10 10:41:43;;;;;;;9.80;3.60;;;12.60;99.90;;;;;;4981331;28;20433;-79
2022/11/10 10:44:27;;;;;;;6.27;3.40;;;12.60;99.90;;;;;;4969200;28;20998;-80
2022/11/10 10:47:11;;;;;;;6.03;2.93;;;12.50;99.90;;;;;;4949777;28;20465;-80
2022/11/10 10:50:21;;;;;;;11.47;4.17;;;12.50;99.90;;;;;;4988759;28;20428;-79
2022/11/10 10:53:16;;;;;;;4.97;3.40;;;12.50;99.90;;;;;;5036759;28;20446;-80
2022/11/10 10:56:05;;;;;;;5.67;3.53;;;12.60;99.90;;;;;;5032553;28;20438;-79
2022/11/10 10:58:55;;;;;;;7.07;4.10;;;12.50;99.90;;;;;;5030629;28;20477;-81
2022/11/10 11:01:42;;;;;;;7.03;4.33;;;12.60;99.90;;;;;;5033400;28;20934;-79
2022/11/10 11:04:32;;;;;;;4.70;3.03;;;12.60;99.90;;;;;;5018114;28;20430;-79
2022/11/10 11:07:22;;;;;;;7.67;3.40;;;12.50;99.90;;;;;;5032244;28;20800;-79
2022/11/10 11:10:25;;;;;;;4.83;3.63;;;12.80;99.90;;;;;;5031511;28;20442;-80
2022/11/10 11:13:26;;;;;;;7.67;3.13;;;12.70;99.90;;;;;;5023184;28;20977;-79
2022/11/10 11:16:11;;;;;;;9.20;4.27;;;13.00;99.90;;;;;;5019594;28;20481;-80
2022/11/10 11:18:55;;;;;;;5.90;3.50;;;13.10;99.90;;;;;;5039138;28;20431;-80
2022/11/10 11:21:55;;;;;;;3.20;2.80;;;13.50;99.90;;;;;;5027101;28;20438;-81
2022/11/10 11:25:11;;;;;;;5.73;3.20;;;14.00;99.90;;;;;;5034565;28;20626;-81
2022/11/10 11:28:15;;;;;;;3.97;2.87;;;16.20;99.90;;;;;;5032920;28;20465;-79
2022/11/10 11:31:31;;;;;;;7.23;3.17;;;16.00;99.90;;;;;;5032027;28;20435;-79
2022/11/10 11:34:28;;;;;;;5.10;2.80;;;16.30;99.90;;;;;;5016554;28;20467;-81
2022/11/10 11:37:27;;;;;;;3.20;2.70;;;16.60;99.90;;;;;;5033208;28;20430;-80
2022/11/10 11:40:36;;;;;;;5.83;3.00;;;16.20;99.90;;;;;;5019156;28;20497;-78
2022/11/10 11:43:38;;;;;;;5.13;2.70;;;16.70;99.90;;;;;;5039962;28;20469;-81
2022/11/10 11:46:34;;;;;;;6.97;5.20;;;15.20;99.90;;;;;;5034682;28;20480;-82
2022/11/10 11:49:53;;;;;;;11.83;2.77;;;14.80;99.90;;;;;;5028683;28;20438;-81
2022/11/10 11:52:56;;;;;;;8.73;3.00;;;14.70;99.90;;;;;;5031401;28;20477;-80
2022/11/10 11:55:58;;;;;;;10.30;3.70;;;14.20;99.90;;;;;;5043026;28;20490;-79
2022/11/10 11:58:55;;;;;;;5.47;3.43;;;17.40;99.90;;;;;;5041195;28;21034;-81
2022/11/10 12:02:00;;;;;;;7.70;2.53;;;17.00;99.90;;;;;;5030983;28;20526;-80
2022/11/10 12:05:05;;;;;;;4.50;2.67;;;16.10;99.90;;;;;;5047921;28;20438;-80
2022/11/10 12:08:01;;;;;;;4.90;3.07;;;16.00;99.90;;;;;;5023050;28;20481;-79
2022/11/10 12:11:07;;;;;;;11.40;4.00;;;15.00;99.90;;;;;;5031044;28;20546;-81
2022/11/10 12:14:04;;;;;;;6.30;3.03;;;14.70;99.90;;;;;;5032916;28;20573;-81
2022/11/10 12:17:13;;;;;;;14.50;3.70;;;14.60;99.90;;;;;;5034720;28;20430;-79
2022/11/10 12:20:11;;;;;;;11.70;3.50;;;14.30;99.90;;;;;;5015543;28;20453;-80
2022/11/10 12:23:21;;;;;;;2.27;2.07;;;13.70;99.90;;;;;;5028346;28;20425;-80
2022/11/10 12:26:32;;;;;;;7.93;3.00;;;13.60;99.90;;;;;;5027003;28;20438;-80
2022/11/10 12:29:38;;;;;;;3.20;2.10;;;13.70;99.90;;;;;;5043881;28;20523;-79
2022/11/10 12:32:40;;;;;;;4.10;2.60;;;14.40;99.90;;;;;;5051306;28;20477;-79
2022/11/10 12:35:29;;;;;;;3.53;2.40;;;15.40;99.90;;;;;;5031081;28;20748;-77
2022/11/10 12:38:22;;;;;;;4.47;3.57;;;15.50;99.90;;;;;;5045811;28;20421;-79
2022/11/10 12:41:13;;;;;;;12.53;3.37;;;16.40;99.90;;;;;;5023109;28;20949;-80
2022/11/10 12:44:27;;;;;;;7.03;3.07;;;16.10;99.90;;;;;;5043676;28;20532;-79
2022/11/10 12:47:17;;;;;;;2.83;2.63;;;17.20;99.90;;;;;;5040466;28;20449;-79
2022/11/10 12:50:34;;;;;;;4.20;2.70;;;18.50;99.90;;;;;;5009579;28;20437;-80
2022/11/10 12:53:23;;;;;;;7.17;3.20;;;18.10;99.90;;;;;;5040077;28;20541;-81
2022/11/10 12:56:23;;;;;;;9.33;3.33;;;18.10;99.90;;;;;;5021954;28;20572;-80
2022/11/10 12:59:28;;;;;;;5.30;4.90;;;17.50;99.90;;;;;;5012764;28;20931;-79
2022/11/10 13:02:27;;;;;;;3.50;2.60;;;16.00;99.90;;;;;;5036416;28;20430;-80
2022/11/10 13:05:35;;;;;;;5.07;3.33;;;16.40;99.90;;;;;;5028573;28;20478;-77
2022/11/10 13:08:45;;;;;;;4.27;2.90;;;16.00;99.90;;;;;;5024541;28;20872;-80
2022/11/10 13:11:32;;;;;;;6.60;3.30;;;16.50;99.90;;;;;;5034656;28;20402;-79
2022/11/10 13:14:24;;;;;;;3.80;2.37;;;16.60;99.90;;;;;;5017671;28;20459;-81
2022/11/10 13:17:48;;;;;;;7.43;2.20;;;17.60;99.90;;;;;;5030129;28;20426;-81
2022/11/10 13:20:51;;;;;;;6.93;3.00;;;17.60;99.90;;;;;;5032378;28;20434;-80
2022/11/10 13:24:10;;;;;;;2.47;2.27;;;18.40;99.90;;;;;;5030222;28;20941;-77
2022/11/10 13:27:10;;;;;;;7.33;2.43;;;17.80;99.90;;;;;;5017100;28;20466;-80
2022/11/10 13:29:57;;;;;;;6.83;2.97;;;17.10;99.90;;;;;;5027654;28;20534;-82
2022/11/10 13:32:42;;;;;;;3.30;2.67;;;18.40;99.90;;;;;;5009512;28;20989;-83
2022/11/10 13:35:50;;;;;;;4.57;2.80;;;19.60;99.90;;;;;;5036748;28;20406;-82
2022/11/10 13:38:38;;;;;;;3.40;2.50;;;20.10;99.90;;;;;;5035570;28;20430;-82
2022/11/10 13:41:25;;;;;;;3.23;2.20;;;20.00;99.90;;;;;;5033398;28;20423;-83
2022/11/10 13:44:31;;;;;;;6.10;2.90;;;18.40;99.90;;;;;;5035111;28;20480;-81
2022/11/10 13:47:35;;;;;;;3.10;2.40;;;17.10;99.90;;;;;;5019258;28;20434;-83
